createdAt,value
2018-05-29T00:01:31.220Z,58.23
2018-05-29T00:03:57.171Z,58.75
2018-05-29T00:06:23.138Z,58.82
2018-05-29T00:08:49.099Z,58.33
2018-05-29T00:11:16.171Z,59.59
2018-05-29T00:13:42.126Z,59.41
2018-05-29T00:16:08.080Z,59.05
2018-05-29T00:18:34.040Z,58.55
2018-05-29T00:20:59.995Z,59.28
2018-05-29T00:23:26.264Z,58.90
2018-05-29T00:25:52.236Z,59.38
2018-05-29T00:28:18.175Z,58.93
2018-05-29T00:30:44.108Z,58.92
2018-05-29T00:33:10.062Z,59.36
2018-05-29T00:35:36.003Z,58.80
2018-05-29T00:38:01.973Z,59.40
2018-05-29T00:40:27.934Z,59.49
2018-05-29T00:42:53.874Z,58.08
2018-05-29T00:45:19.806Z,58.65
2018-05-29T00:47:45.749Z,57.29
2018-05-29T00:50:11.703Z,57.33
2018-05-29T00:52:37.654Z,57.63
2018-05-29T00:55:03.608Z,58.60
2018-05-29T00:57:29.563Z,57.72
2018-05-29T00:59:55.510Z,58.26
2018-05-29T01:02:21.453Z,57.53
2018-05-29T01:04:47.414Z,58.33
2018-05-29T01:07:13.381Z,56.75
2018-05-29T01:09:39.404Z,57.01
2018-05-29T01:12:05.392Z,56.71
2018-05-29T01:14:31.348Z,57.25
2018-05-29T01:16:57.332Z,57.38
2018-05-29T01:19:23.267Z,57.26
2018-05-29T01:21:49.215Z,57.96
2018-05-29T01:24:15.165Z,58.19
2018-05-29T01:26:41.116Z,57.61
2018-05-29T01:29:07.074Z,57.86
2018-05-29T01:31:33.054Z,57.96
2018-05-29T01:33:59.025Z,58.40
2018-05-29T01:36:24.979Z,58.09
2018-05-29T01:38:50.946Z,59.06
2018-05-29T01:41:16.931Z,59.86
2018-05-29T01:43:42.895Z,58.52
2018-05-29T01:46:08.841Z,57.36
2018-05-29T01:48:35.018Z,57.39
2018-05-29T01:51:00.961Z,58.23
2018-05-29T01:53:26.906Z,57.54
2018-05-29T01:55:52.851Z,57.37
2018-05-29T01:58:18.804Z,57.39
2018-05-29T02:00:44.756Z,57.62
2018-05-29T02:03:10.732Z,57.91
2018-05-29T02:05:36.692Z,58.04
2018-05-29T02:08:02.668Z,59.79
2018-05-29T02:10:29.232Z,58.82
2018-05-29T02:12:55.202Z,59.19
2018-05-29T02:15:21.162Z,59.38
2018-05-29T02:17:47.105Z,58.74
2018-05-29T02:20:13.045Z,58.30
2018-05-29T02:22:38.982Z,58.30
2018-05-29T02:25:04.953Z,58.47
2018-05-29T02:27:30.944Z,58.06
2018-05-29T02:29:56.919Z,58.06
2018-05-29T02:32:22.889Z,57.72
2018-05-29T02:34:48.870Z,57.14
2018-05-29T02:37:14.833Z,58.84
2018-05-29T02:39:40.769Z,57.78
2018-05-29T02:42:06.735Z,59.08
2018-05-29T02:44:32.693Z,58.79
2018-05-29T02:46:58.629Z,58.17
2018-05-29T02:49:24.576Z,57.46
2018-05-29T02:51:50.520Z,57.62
2018-05-29T02:54:16.482Z,57.60
2018-05-29T02:56:42.432Z,56.89
2018-05-29T02:59:08.388Z,57.26
2018-05-29T03:01:34.404Z,57.21
2018-05-29T03:04:00.371Z,57.40
2018-05-29T03:06:26.312Z,57.62
2018-05-29T03:08:52.383Z,58.24
2018-05-29T03:11:18.333Z,58.20
2018-05-29T03:13:44.304Z,57.93
2018-05-29T03:16:10.245Z,57.94
2018-05-29T03:18:36.225Z,59.36
2018-05-29T03:21:02.194Z,58.40
2018-05-29T03:23:28.156Z,58.85
2018-05-29T03:25:54.139Z,59.09
2018-05-29T03:28:20.107Z,58.97
2018-05-29T03:30:46.077Z,58.74
2018-05-29T03:33:12.049Z,58.04
2018-05-29T03:35:38.017Z,58.46
2018-05-29T03:38:03.963Z,59.06
2018-05-29T03:40:29.971Z,58.61
2018-05-29T03:42:55.975Z,58.21
2018-05-29T03:45:21.923Z,57.99
2018-05-29T03:47:47.856Z,57.90
2018-05-29T03:50:13.816Z,57.46
2018-05-29T03:52:39.760Z,56.86
2018-05-29T03:55:05.726Z,57.11
2018-05-29T03:57:31.691Z,56.44
2018-05-29T03:59:57.686Z,56.25
2018-05-29T04:02:23.628Z,56.61
2018-05-29T04:04:49.589Z,56.07
2018-05-29T04:07:15.554Z,55.08
2018-05-29T04:09:41.551Z,55.85
2018-05-29T04:12:07.523Z,54.17
2018-05-29T04:14:34.283Z,54.45
2018-05-29T04:17:00.270Z,55.22
2018-05-29T04:19:26.204Z,54.41
2018-05-29T04:21:52.154Z,54.07
2018-05-29T04:24:18.118Z,53.73
2018-05-29T04:26:44.047Z,53.40
2018-05-29T04:29:10.011Z,53.27
2018-05-29T04:31:37.005Z,52.57
2018-05-29T04:34:02.968Z,53.83
2018-05-29T04:36:29.038Z,52.55
2018-05-29T04:38:55.021Z,51.38
2018-05-29T04:41:20.966Z,50.99
2018-05-29T04:43:46.927Z,50.52
2018-05-29T04:46:12.919Z,49.61
2018-05-29T04:48:38.876Z,50.79
2018-05-29T04:51:04.854Z,50.41
2018-05-29T04:53:30.814Z,49.73
2018-05-29T04:55:56.774Z,49.63
2018-05-29T04:58:22.701Z,49.62
2018-05-29T05:00:48.646Z,49.13
2018-05-29T05:03:14.596Z,48.72
2018-05-29T05:05:40.564Z,48.74
2018-05-29T05:08:06.527Z,49.16
2018-05-29T05:10:32.463Z,49.12
2018-05-29T05:12:58.409Z,48.75
2018-05-29T05:15:24.365Z,48.45
2018-05-29T05:17:53.613Z,48.71
2018-05-29T05:20:19.628Z,49.31
2018-05-29T05:22:45.545Z,48.57
2018-05-29T05:25:11.514Z,48.37
2018-05-29T05:27:37.467Z,47.72
2018-05-29T05:30:03.451Z,47.90
2018-05-29T05:32:29.403Z,47.89
2018-05-29T05:34:55.391Z,47.64
2018-05-29T05:37:21.342Z,47.57
2018-05-29T05:39:47.343Z,46.68
2018-05-29T05:42:13.302Z,47.46
2018-05-29T05:44:39.251Z,46.93
2018-05-29T05:47:05.237Z,47.06
2018-05-29T05:49:31.202Z,46.54
2018-05-29T05:51:57.163Z,46.70
2018-05-29T05:54:23.104Z,46.06
2018-05-29T05:56:49.049Z,45.36
2018-05-29T05:59:15.020Z,44.97
2018-05-29T06:01:40.983Z,45.07
2018-05-29T06:04:06.944Z,44.31
2018-05-29T06:06:33.144Z,44.25
2018-05-29T06:08:59.158Z,43.98
2018-05-29T06:11:25.119Z,43.76
2018-05-29T06:13:51.087Z,43.97
2018-05-29T06:16:17.036Z,43.64
2018-05-29T06:18:43.072Z,42.99
2018-05-29T06:21:09.108Z,43.39
2018-05-29T06:23:35.088Z,43.29
2018-05-29T06:26:01.137Z,43.24
2018-05-29T06:28:27.125Z,42.62
2018-05-29T06:30:53.108Z,42.45
2018-05-29T06:33:19.064Z,42.18
2018-05-29T06:35:45.029Z,42.13
2018-05-29T06:38:11.068Z,41.70
2018-05-29T06:40:36.972Z,41.56
2018-05-29T06:43:02.919Z,41.29
2018-05-29T06:45:28.893Z,41.03
2018-05-29T06:47:54.862Z,40.69
2018-05-29T06:50:20.841Z,40.63
2018-05-29T06:52:46.807Z,40.39
2018-05-29T06:55:12.794Z,40.06
2018-05-29T06:57:38.713Z,39.55
2018-05-29T07:00:04.710Z,39.31
2018-05-29T07:02:30.796Z,39.17
2018-05-29T07:04:56.777Z,38.66
2018-05-29T07:07:22.717Z,38.64
2018-05-29T07:09:48.657Z,37.95
2018-05-29T07:12:14.612Z,38.21
2018-05-29T07:14:40.585Z,37.98
2018-05-29T07:17:06.516Z,38.43
2018-05-29T07:19:32.456Z,38.27
2018-05-29T07:21:58.391Z,37.98
2018-05-29T07:24:24.417Z,38.13
2018-05-29T07:26:50.380Z,37.89
2018-05-29T07:29:16.363Z,37.93
2018-05-29T07:31:42.334Z,38.32
2018-05-29T07:34:08.285Z,38.06
2018-05-29T07:36:34.217Z,38.22
2018-05-29T07:39:03.074Z,38.08
2018-05-29T07:41:29.229Z,38.59
2018-05-29T07:43:55.243Z,38.17
2018-05-29T07:46:21.220Z,38.13
2018-05-29T07:48:47.174Z,37.55
2018-05-29T07:51:13.160Z,38.08
2018-05-29T07:53:39.130Z,37.84
2018-05-29T07:56:05.091Z,37.52
2018-05-29T07:58:31.042Z,37.15
2018-05-29T08:00:57.033Z,37.30
2018-05-29T08:03:22.962Z,37.70
2018-05-29T08:05:48.942Z,37.61
2018-05-29T08:08:14.880Z,38.46
2018-05-29T08:10:40.940Z,38.40
2018-05-29T08:13:06.856Z,39.05
2018-05-29T08:15:32.801Z,39.35
2018-05-29T08:17:58.746Z,39.86
2018-05-29T08:20:24.716Z,40.67
2018-05-29T08:22:50.674Z,40.27
2018-05-29T08:25:16.631Z,41.14
2018-05-29T08:27:42.583Z,41.65
2018-05-29T08:30:08.556Z,41.74
2018-05-29T08:32:34.518Z,42.49
2018-05-29T08:35:00.470Z,42.46
2018-05-29T08:37:26.421Z,42.92
2018-05-29T08:39:52.350Z,43.01
2018-05-29T08:42:18.289Z,42.74
2018-05-29T08:44:44.240Z,43.19
2018-05-29T08:47:10.202Z,43.38
2018-05-29T08:49:36.143Z,43.36
2018-05-29T08:52:02.085Z,43.53
2018-05-29T08:54:28.111Z,43.80
2018-05-29T08:56:54.060Z,43.45
2018-05-29T08:59:19.998Z,43.29
2018-05-29T09:01:45.940Z,42.70
2018-05-29T09:04:11.916Z,42.34
2018-05-29T09:06:37.880Z,42.25
2018-05-29T09:09:03.839Z,42.44
2018-05-29T09:11:29.834Z,42.58
2018-05-29T09:13:55.787Z,42.54
2018-05-29T09:16:21.901Z,42.44
2018-05-29T09:18:47.866Z,41.67
2018-05-29T09:21:13.806Z,42.25
2018-05-29T09:23:39.763Z,41.49
2018-05-29T09:26:05.747Z,41.87
2018-05-29T09:28:31.702Z,42.37
2018-05-29T09:30:57.684Z,42.57
2018-05-29T09:33:23.650Z,41.97
2018-05-29T09:35:49.590Z,41.47
2018-05-29T09:38:15.550Z,41.15
2018-05-29T09:40:41.505Z,40.67
2018-05-29T09:43:07.449Z,41.20
2018-05-29T09:45:33.412Z,39.39
2018-05-29T09:47:59.382Z,40.29
2018-05-29T09:50:25.370Z,40.51
2018-05-29T09:52:51.327Z,39.76
2018-05-29T09:55:17.311Z,39.18
2018-05-29T09:57:43.267Z,39.00
2018-05-29T10:00:09.220Z,38.67
2018-05-29T10:02:35.187Z,39.15
2018-05-29T10:05:01.167Z,38.91
2018-05-29T10:07:27.141Z,37.37
2018-05-29T10:09:53.110Z,37.74
2018-05-29T10:12:19.112Z,37.77
2018-05-29T10:14:45.084Z,37.99
2018-05-29T10:17:11.087Z,38.65
2018-05-29T10:19:37.063Z,38.16
2018-05-29T10:22:03.031Z,38.59
2018-05-29T10:24:28.995Z,39.46
2018-05-29T10:26:54.932Z,38.97
2018-05-29T10:29:20.889Z,38.52
2018-05-29T10:31:46.843Z,36.66
2018-05-29T10:34:12.769Z,37.28
2018-05-29T10:36:38.708Z,37.15
2018-05-29T10:39:04.657Z,35.87
2018-05-29T10:41:30.621Z,35.27
2018-05-29T10:43:56.593Z,35.56
2018-05-29T10:46:22.541Z,35.08
2018-05-29T10:48:48.515Z,36.10
2018-05-29T10:51:14.482Z,35.72
2018-05-29T10:53:40.435Z,35.59
2018-05-29T10:56:06.374Z,36.16
2018-05-29T10:58:32.321Z,36.11
2018-05-29T11:00:58.282Z,36.50
2018-05-29T11:03:24.248Z,35.49
2018-05-29T11:05:50.206Z,36.03
2018-05-29T11:08:16.188Z,35.95
2018-05-29T11:10:42.252Z,36.90
2018-05-29T11:13:08.217Z,35.57
2018-05-29T11:15:34.191Z,35.65
2018-05-29T11:18:00.163Z,35.64
2018-05-29T11:20:26.117Z,36.48
2018-05-29T11:22:52.079Z,36.84
2018-05-29T11:25:18.050Z,36.26
2018-05-29T11:27:43.988Z,36.67
2018-05-29T11:30:09.949Z,36.55
2018-05-29T11:32:35.921Z,35.99
2018-05-29T11:35:01.892Z,36.16
2018-05-29T11:37:27.848Z,36.72
2018-05-29T11:39:53.850Z,34.96
2018-05-29T11:42:19.892Z,34.67
2018-05-29T11:44:45.875Z,35.52
2018-05-29T11:47:12.701Z,35.85
2018-05-29T11:49:38.670Z,35.93
2018-05-29T11:52:04.632Z,35.80
2018-05-29T11:54:30.586Z,36.14
2018-05-29T11:56:56.543Z,36.27
2018-05-29T11:59:22.489Z,36.54
2018-05-29T12:01:48.449Z,37.36
2018-05-29T12:04:14.423Z,37.13
2018-05-29T12:06:40.399Z,36.79
2018-05-29T12:09:06.362Z,37.15
2018-05-29T12:11:32.293Z,35.85
2018-05-29T12:13:58.253Z,35.81
2018-05-29T12:16:24.247Z,36.38
2018-05-29T12:18:50.220Z,37.49
2018-05-29T12:21:16.344Z,38.55
2018-05-29T12:23:42.362Z,38.63
2018-05-29T12:26:08.353Z,38.61
2018-05-29T12:28:34.585Z,37.75
2018-05-29T12:31:00.603Z,37.41
2018-05-29T12:33:26.594Z,37.13
2018-05-29T12:35:52.577Z,37.70
2018-05-29T12:38:18.615Z,38.62
2018-05-29T12:40:44.602Z,38.43
2018-05-29T12:43:10.655Z,38.59
2018-05-29T12:45:36.631Z,36.83
2018-05-29T12:48:02.575Z,37.46
2018-05-29T12:50:28.562Z,38.08
2018-05-29T12:52:54.548Z,36.60
2018-05-29T12:55:20.512Z,36.30
2018-05-29T12:57:46.525Z,37.02
2018-05-29T13:00:12.678Z,37.84
2018-05-29T13:05:15.655Z,38.71
2018-05-29T13:07:42.502Z,38.40
2018-05-29T13:10:08.552Z,39.05
2018-05-29T13:12:34.607Z,38.40
2018-05-29T13:15:00.683Z,38.88
2018-05-29T13:17:26.709Z,38.74
2018-05-29T13:19:52.896Z,39.88
2018-05-29T13:22:18.912Z,38.96
2018-05-29T13:24:47.012Z,39.03
2018-05-29T13:27:13.070Z,39.58
2018-05-29T13:29:39.099Z,39.57
2018-05-29T13:32:05.163Z,40.19
2018-05-29T13:34:31.200Z,39.77
2018-05-29T13:36:57.226Z,40.17
2018-05-29T13:39:23.233Z,39.22
2018-05-29T13:41:49.237Z,38.55
2018-05-29T13:44:15.233Z,38.78
2018-05-29T13:46:41.223Z,39.25
2018-05-29T13:49:07.209Z,38.92
2018-05-29T13:51:33.198Z,38.83
2018-05-29T13:53:59.168Z,38.28
2018-05-29T13:56:25.171Z,38.61
2018-05-29T13:58:51.099Z,38.10
2018-05-29T14:01:17.125Z,37.50
2018-05-29T14:03:43.104Z,37.74
2018-05-29T14:06:09.063Z,38.62
2018-05-29T14:08:35.250Z,37.60
2018-05-29T14:11:01.272Z,37.26
2018-05-29T14:15:58.722Z,38.69
2018-05-29T14:18:24.779Z,37.57
2018-05-29T14:20:50.841Z,37.96
2018-05-29T14:23:16.801Z,37.99
2018-05-29T14:25:43.872Z,38.87
2018-05-29T14:28:11.988Z,38.72
2018-05-29T14:30:38.044Z,38.09
2018-05-29T14:33:04.082Z,39.52
2018-05-29T14:35:30.081Z,38.18
2018-05-29T14:37:58.641Z,38.01
2018-05-29T14:40:24.718Z,38.99
2018-05-29T14:42:50.817Z,38.87
2018-05-29T14:45:16.834Z,39.05
2018-05-29T14:47:42.941Z,38.84
2018-05-29T14:50:08.914Z,38.27
2018-05-29T14:52:35.074Z,39.78
2018-05-29T14:55:01.041Z,38.99
2018-05-29T14:57:27.059Z,39.83
2018-05-29T14:59:55.582Z,40.32
2018-05-29T15:02:21.617Z,40.84
2018-05-29T15:04:47.628Z,40.34
2018-05-29T15:07:13.626Z,41.22
2018-05-29T15:09:44.797Z,41.18
2018-05-29T15:12:10.794Z,40.47
2018-05-29T15:14:37.898Z,40.23
2018-05-29T15:17:03.861Z,39.95
2018-05-29T15:19:29.915Z,40.63
2018-05-29T15:21:55.930Z,40.65
2018-05-29T15:24:21.935Z,40.15
2018-05-29T15:26:47.988Z,40.41
2018-05-29T15:29:14.016Z,40.73
2018-05-29T15:31:40.046Z,39.87
2018-05-29T15:34:07.150Z,40.51
2018-05-29T15:36:33.210Z,39.96
2018-05-29T15:38:59.225Z,40.11
2018-05-29T15:41:25.250Z,39.26
2018-05-29T15:43:51.271Z,39.45
2018-05-29T15:46:17.301Z,39.04
2018-05-29T15:48:43.331Z,37.99
2018-05-29T15:51:10.411Z,37.32
2018-05-29T15:53:36.395Z,37.32
2018-05-29T15:56:02.422Z,37.12
2018-05-29T15:58:28.445Z,36.98
2018-05-29T16:00:54.495Z,37.83
2018-05-29T16:03:20.507Z,37.45
2018-05-29T16:05:46.589Z,37.65
2018-05-29T16:08:12.662Z,37.79
2018-05-29T16:10:38.664Z,37.35
2018-05-29T16:13:04.674Z,37.50
2018-05-29T16:18:06.637Z,38.25
2018-05-29T16:20:32.766Z,38.41
2018-05-29T16:22:58.794Z,38.19
2018-05-29T16:25:25.880Z,38.21
2018-05-29T16:27:52.895Z,38.06
2018-05-29T16:30:18.916Z,38.60
2018-05-29T16:32:44.991Z,39.02
2018-05-29T16:35:11.059Z,37.66
2018-05-29T16:37:37.124Z,38.27
2018-05-29T16:40:03.124Z,36.21
2018-05-29T16:42:32.263Z,36.33
2018-05-29T16:45:00.330Z,36.43
2018-05-29T16:47:26.352Z,36.17
2018-05-29T16:49:52.382Z,36.40
2018-05-29T16:52:19.431Z,36.85
2018-05-29T16:54:45.407Z,37.33
2018-05-29T16:57:11.431Z,37.66
2018-05-29T16:59:37.480Z,38.03
2018-05-29T17:02:03.514Z,38.48
2018-05-29T17:04:29.524Z,38.52
2018-05-29T17:06:55.564Z,37.95
2018-05-29T17:09:21.588Z,38.44
2018-05-29T17:11:47.645Z,38.01
2018-05-29T17:14:13.637Z,39.05
2018-05-29T17:16:39.624Z,39.58
2018-05-29T17:19:07.608Z,42.17
2018-05-29T17:21:34.729Z,43.14
2018-05-29T17:24:02.754Z,43.66
2018-05-29T17:26:28.903Z,43.72
2018-05-29T17:28:54.898Z,43.96
2018-05-29T17:31:20.945Z,43.71
2018-05-29T17:33:46.909Z,44.23
2018-05-29T17:36:15.190Z,43.98
2018-05-29T17:38:41.266Z,44.44
2018-05-29T17:41:07.346Z,44.25
2018-05-29T17:43:33.400Z,44.11
2018-05-29T17:45:59.395Z,44.92
2018-05-29T17:48:25.581Z,44.46
2018-05-29T17:50:51.780Z,44.29
2018-05-29T17:53:18.202Z,44.24
2018-05-29T17:55:44.725Z,44.48
2018-05-29T17:58:11.287Z,45.18
2018-05-29T18:00:37.703Z,45.30
2018-05-29T18:03:04.763Z,45.40
2018-05-29T18:05:30.797Z,45.77
2018-05-29T18:07:56.817Z,45.78
2018-05-29T18:10:22.830Z,45.87
2018-05-29T18:12:48.830Z,45.79
2018-05-29T18:15:14.866Z,45.86
2018-05-29T18:17:40.905Z,45.96
2018-05-29T18:20:06.872Z,46.20
2018-05-29T18:22:33.007Z,46.06
2018-05-29T18:24:59.111Z,46.21
2018-05-29T18:27:25.148Z,46.35
2018-05-29T18:29:51.310Z,46.09
2018-05-29T18:32:17.515Z,46.17
2018-05-29T18:34:43.930Z,46.56
2018-05-29T18:37:10.362Z,47.03
2018-05-29T18:39:36.497Z,46.96
2018-05-29T18:42:02.593Z,47.19
2018-05-29T18:44:28.802Z,47.61
2018-05-29T18:46:54.970Z,47.28
2018-05-29T18:49:21.065Z,48.29
2018-05-29T18:51:47.197Z,48.15
2018-05-29T18:54:13.189Z,47.64
2018-05-29T18:56:39.272Z,46.95
2018-05-29T18:59:05.256Z,46.48
2018-05-29T19:01:31.289Z,46.36
2018-05-29T19:03:57.257Z,46.11
2018-05-29T19:06:23.292Z,45.39
2018-05-29T19:08:49.345Z,44.79
2018-05-29T19:11:15.370Z,45.03
2018-05-29T19:13:41.372Z,45.12
2018-05-29T19:16:07.393Z,44.78
2018-05-29T19:18:33.469Z,44.60
2018-05-29T19:20:59.491Z,44.60
2018-05-29T19:23:25.536Z,44.33
2018-05-29T19:25:51.508Z,44.17
2018-05-29T19:28:18.537Z,43.95
2018-05-29T19:30:44.475Z,43.91
2018-05-29T19:33:10.634Z,43.80
2018-05-29T19:35:36.585Z,43.94
2018-05-29T19:38:02.556Z,43.92
2018-05-29T19:40:28.539Z,43.70
2018-05-29T19:42:54.620Z,43.86
2018-05-29T19:45:20.761Z,43.54
2018-05-29T19:47:46.734Z,43.69
2018-05-29T19:50:12.693Z,43.92
2018-05-29T19:52:38.685Z,44.06
2018-05-29T19:55:04.738Z,44.39
2018-05-29T19:57:30.714Z,44.58
2018-05-29T19:59:56.725Z,44.38
2018-05-29T20:02:22.703Z,44.83
2018-05-29T20:04:48.816Z,46.03
2018-05-29T20:07:14.832Z,46.19
2018-05-29T20:09:40.898Z,47.63
2018-05-29T20:12:09.037Z,45.83
2018-05-29T20:14:35.045Z,46.67
2018-05-29T20:17:01.069Z,49.05
2018-05-29T20:19:27.011Z,46.52
2018-05-29T20:21:52.990Z,47.94
2018-05-29T20:24:19.056Z,47.04
2018-05-29T20:26:44.997Z,47.85
2018-05-29T20:29:10.956Z,49.53
2018-05-29T20:31:36.940Z,47.89
2018-05-29T20:34:02.977Z,48.42
2018-05-29T20:36:28.951Z,49.23
2018-05-29T20:38:54.949Z,51.02
2018-05-29T20:41:20.914Z,52.65
2018-05-29T20:43:46.907Z,49.25
2018-05-29T20:46:12.825Z,52.32
2018-05-29T20:48:38.795Z,48.91
2018-05-29T20:51:04.740Z,50.41
2018-05-29T20:53:30.734Z,50.13
2018-05-29T20:55:56.762Z,49.01
2018-05-29T20:58:22.760Z,49.52
2018-05-29T21:00:48.719Z,50.44
2018-05-29T21:03:14.685Z,49.23
2018-05-29T21:05:40.667Z,51.97
2018-05-29T21:08:06.698Z,48.43
2018-05-29T21:10:32.688Z,49.42
2018-05-29T21:12:58.659Z,48.92
2018-05-29T21:15:24.677Z,49.33
2018-05-29T21:17:50.639Z,47.36
2018-05-29T21:20:16.618Z,47.98
2018-05-29T21:22:42.551Z,45.83
2018-05-29T21:25:08.491Z,48.64
2018-05-29T21:27:34.489Z,48.43
2018-05-29T21:30:00.455Z,46.19
2018-05-29T21:32:26.412Z,45.80
2018-05-29T21:34:52.376Z,47.98
2018-05-29T21:37:18.336Z,48.18
2018-05-29T21:39:44.302Z,46.52
2018-05-29T21:42:10.230Z,46.98
2018-05-29T21:44:36.199Z,47.80
2018-05-29T21:47:02.230Z,46.14
2018-05-29T21:49:28.189Z,49.86
2018-05-29T21:51:54.175Z,46.09
2018-05-29T21:54:20.170Z,47.00
2018-05-29T21:56:46.103Z,45.84
2018-05-29T21:59:12.084Z,46.52
2018-05-29T22:01:38.016Z,47.42
2018-05-29T22:04:03.985Z,46.48
2018-05-29T22:06:29.940Z,49.41
2018-05-29T22:08:55.909Z,46.14
2018-05-29T22:11:21.862Z,46.49
2018-05-29T22:13:47.841Z,45.83
2018-05-29T22:16:13.780Z,49.06
2018-05-29T22:18:39.740Z,48.36
2018-05-29T22:21:05.678Z,49.73
2018-05-29T22:23:31.606Z,46.86
2018-05-29T22:25:57.579Z,46.64
2018-05-29T22:28:23.518Z,47.73
2018-05-29T22:30:49.481Z,47.54
2018-05-29T22:33:15.539Z,48.19
2018-05-29T22:35:41.554Z,48.16
2018-05-29T22:38:07.497Z,47.31
2018-05-29T22:40:33.454Z,47.34
2018-05-29T22:42:59.386Z,48.06
2018-05-29T22:45:25.345Z,47.73
2018-05-29T22:47:51.329Z,47.95
2018-05-29T22:50:17.297Z,47.67
2018-05-29T22:52:43.229Z,49.63
2018-05-29T22:55:09.203Z,49.02
2018-05-29T22:57:35.136Z,50.50
2018-05-29T23:00:01.096Z,49.40
2018-05-29T23:02:27.064Z,51.51
2018-05-29T23:04:52.993Z,49.33
2018-05-29T23:07:18.945Z,48.52
2018-05-29T23:09:45.033Z,48.87
2018-05-29T23:12:10.992Z,48.60
2018-05-29T23:14:36.928Z,48.69
2018-05-29T23:17:02.896Z,48.72
2018-05-29T23:19:28.868Z,49.70
2018-05-29T23:21:54.845Z,50.90
2018-05-29T23:24:20.863Z,49.46
2018-05-29T23:26:46.811Z,50.35
2018-05-29T23:29:12.764Z,51.70
2018-05-29T23:31:38.731Z,50.72
2018-05-29T23:34:04.687Z,50.71
2018-05-29T23:36:30.640Z,51.04
2018-05-29T23:38:56.584Z,52.29
2018-05-29T23:41:22.526Z,52.71
2018-05-29T23:43:48.463Z,51.99
2018-05-29T23:46:14.406Z,51.48
2018-05-29T23:48:40.355Z,53.37
2018-05-29T23:51:06.289Z,52.07
2018-05-29T23:53:32.231Z,52.73
2018-05-29T23:55:58.243Z,53.90
2018-05-29T23:58:24.156Z,53.34
